Aviation Digital Data Service (ADDS)

Output produced by METARs form (0249 UTC 15 August 2020)
found at http://www.aviationweather.gov/metar/data/
 
Forecast for: AMD
Text: TAF AMD NGFU 150130Z 1501/1524 06007KT 9999 SCT018
Forecast period: 0100 UTC 15 August 2020 to 0000 UTC 16 August 2020
Forecast type: FROM: standard forecast or significant change
Winds: from the ENE (60 degrees) at 8 MPH (7 knots; 3.6 m/s)
Visibility: 6 or more miles (10+ km)
Ceiling: at least 12,000 feet AGL
Clouds: scattered clouds at 1800 feet AGL
Weather: no significant weather forecast for this period
Text: PROB40
Forecast period: 0100 to 0900 UTC 15 August 2020
Forecast type: TEMPORARY: The following changes expected for less than half the time period
Visibility: 3 miles (5 km)
Ceiling: 1500 feet AGL
Clouds: broken clouds at 1500 feet AGL
few clouds at 1800 feet AGL
Weather: TSRA  (rain associated with thunderstorm(s))
Text: TEMPO 1501/1509 5000 TSRA BKN015 FEW018CB
Forecast period: 1800 UTC 15 August 2020 to 0000 UTC 16 August 2020
Forecast type: TEMPORARY: The following changes expected for less than half the time period
Visibility: 3 miles (5 km)
Ceiling: 1500 feet AGL
Clouds: broken clouds at 1500 feet AGL
few clouds at 1800 feet AGL
Weather: TSRA  (rain associated with thunderstorm(s))